Time;durP1;ratioP1;P1;durP2;ratioP2;P2;SDS_P1;SDS_P2;PMS_P1;PMS_P2;Temp;Humidity;BMP_temperature;BMP_pressure;BME280_temperature;BME280_humidity;BME280_pressure;Samples;Min_cycle;Max_cycle;Signal;HPM_P1;HPM_P2
2024/01/30 00:01:50;;;;;;;22.02;16.83;;;6.50;99.90;;;;;;5030343;28;20048;-75
2024/01/30 00:04:16;;;;;;;22.90;16.40;;;6.40;99.90;;;;;;5031705;28;20140;-74
2024/01/30 00:06:43;;;;;;;21.98;16.33;;;6.40;99.90;;;;;;5030167;28;20176;-75
2024/01/30 00:09:10;;;;;;;21.48;15.25;;;6.40;99.90;;;;;;5043710;28;20037;-74
2024/01/30 00:11:36;;;;;;;20.15;16.27;;;6.40;99.90;;;;;;5031236;28;20052;-74
2024/01/30 00:14:01;;;;;;;20.08;16.40;;;6.40;99.90;;;;;;5063703;28;20387;-74
2024/01/30 00:16:28;;;;;;;26.17;17.60;;;6.40;99.90;;;;;;5030687;28;20454;-75
2024/01/30 00:18:53;;;;;;;21.90;16.15;;;6.30;99.90;;;;;;5029499;28;20117;-75
2024/01/30 00:21:20;;;;;;;21.45;16.85;;;6.40;99.90;;;;;;5012734;28;20125;-74
2024/01/30 00:23:46;;;;;;;22.02;16.50;;;6.30;99.90;;;;;;5029877;28;20037;-74
2024/01/30 00:26:12;;;;;;;20.58;16.77;;;6.30;99.90;;;;;;5030048;28;20073;-74
2024/01/30 00:28:41;;;;;;;24.52;17.42;;;6.30;99.90;;;;;;5030349;28;20395;-74
2024/01/30 00:31:07;;;;;;;26.00;16.92;;;6.30;99.90;;;;;;5020879;28;20041;-75
2024/01/30 00:33:33;;;;;;;21.00;16.38;;;6.30;99.90;;;;;;5030885;28;20554;-75
2024/01/30 00:35:59;;;;;;;22.90;16.42;;;6.30;99.90;;;;;;5031144;28;20111;-74
2024/01/30 00:38:24;;;;;;;26.77;17.90;;;6.30;99.90;;;;;;5062249;28;20048;-74
2024/01/30 00:40:50;;;;;;;22.80;15.73;;;6.40;99.90;;;;;;5034900;28;20069;-74
2024/01/30 00:43:16;;;;;;;24.13;16.40;;;6.40;99.90;;;;;;5033751;28;20068;-74
2024/01/30 00:45:44;;;;;;;22.33;17.52;;;6.40;99.90;;;;;;5066708;28;20479;-74
2024/01/30 00:48:10;;;;;;;25.65;17.17;;;6.40;99.90;;;;;;5023761;28;20037;-74
2024/01/30 00:50:35;;;;;;;21.95;17.13;;;6.40;99.90;;;;;;5032912;28;20038;-74
2024/01/30 00:53:01;;;;;;;23.10;17.33;;;6.40;99.90;;;;;;5033811;28;20041;-74
2024/01/30 00:55:27;;;;;;;26.67;17.45;;;6.40;99.90;;;;;;5066459;28;20100;-75
2024/01/30 00:57:53;;;;;;;21.40;17.02;;;6.40;99.90;;;;;;5031317;28;20026;-75
2024/01/30 01:00:20;;;;;;;23.38;17.70;;;6.30;99.90;;;;;;5034312;28;20483;-74
2024/01/30 01:02:46;;;;;;;20.83;16.27;;;6.30;99.90;;;;;;5033997;28;20045;-74
2024/01/30 01:05:12;;;;;;;22.13;16.58;;;6.30;99.90;;;;;;5034682;28;20036;-74
2024/01/30 01:07:38;;;;;;;23.63;17.90;;;6.20;99.90;;;;;;5066039;28;20053;-75
2024/01/30 01:10:04;;;;;;;20.63;16.17;;;6.30;99.90;;;;;;5048082;28;20040;-74
2024/01/30 01:12:29;;;;;;;21.23;16.25;;;6.20;99.90;;;;;;5034665;28;20045;-75
2024/01/30 01:14:55;;;;;;;23.05;17.13;;;6.20;99.90;;;;;;5034448;28;20048;-75
2024/01/30 01:17:21;;;;;;;22.58;16.67;;;6.20;99.90;;;;;;5034762;28;20041;-74
2024/01/30 01:19:46;;;;;;;24.40;17.25;;;6.30;99.90;;;;;;5064371;28;20040;-73
2024/01/30 01:22:12;;;;;;;24.35;17.38;;;6.30;99.90;;;;;;5034102;28;20039;-73
2024/01/30 01:24:38;;;;;;;26.48;17.77;;;6.30;99.90;;;;;;5033551;28;20227;-74
2024/01/30 01:27:05;;;;;;;23.60;16.90;;;6.30;99.90;;;;;;5034262;28;20033;-74
2024/01/30 01:29:31;;;;;;;21.50;15.98;;;6.40;99.90;;;;;;5064770;28;20052;-74
2024/01/30 01:31:57;;;;;;;22.85;16.45;;;6.50;99.90;;;;;;5033037;28;20043;-73
2024/01/30 01:34:23;;;;;;;23.88;15.68;;;6.50;99.90;;;;;;5034325;28;20053;-73
2024/01/30 01:36:49;;;;;;;20.20;15.10;;;6.60;99.90;;;;;;5033243;28;20398;-73
2024/01/30 01:39:16;;;;;;;19.55;14.77;;;6.70;99.90;;;;;;5033971;28;20045;-73
2024/01/30 01:41:41;;;;;;;18.63;13.75;;;6.70;99.90;;;;;;5031028;28;20045;-74
2024/01/30 01:44:08;;;;;;;20.55;15.57;;;6.70;99.90;;;;;;5023470;28;20037;-73
2024/01/30 01:46:34;;;;;;;23.52;17.25;;;6.70;99.90;;;;;;5032558;28;20487;-73
2024/01/30 01:49:02;;;;;;;19.27;13.43;;;6.70;99.90;;;;;;5032212;28;20064;-74
2024/01/30 01:51:30;;;;;;;22.05;14.60;;;6.70;99.90;;;;;;5032208;28;20199;-73
2024/01/30 01:53:58;;;;;;;20.80;14.07;;;6.80;99.90;;;;;;5032350;28;20171;-74
2024/01/30 01:56:25;;;;;;;21.58;14.23;;;6.80;99.90;;;;;;5033570;28;20041;-73
2024/01/30 01:58:54;;;;;;;20.40;14.95;;;6.90;99.90;;;;;;5032050;28;20044;-73
2024/01/30 02:01:20;;;;;;;22.05;16.58;;;6.90;99.90;;;;;;5031800;28;20061;-74
2024/01/30 02:03:46;;;;;;;18.65;14.07;;;6.80;99.90;;;;;;5029075;28;20044;-73
2024/01/30 02:06:14;;;;;;;22.48;15.30;;;6.80;99.90;;;;;;5033555;28;20049;-73
2024/01/30 02:08:40;;;;;;;23.30;15.80;;;6.80;99.90;;;;;;5031616;28;20494;-74
2024/01/30 02:11:06;;;;;;;20.98;14.00;;;6.80;99.90;;;;;;5065299;28;20117;-74
2024/01/30 02:13:32;;;;;;;23.58;15.32;;;6.80;99.90;;;;;;5064440;28;20037;-74
2024/01/30 02:15:57;;;;;;;21.67;14.85;;;6.80;99.90;;;;;;5031046;28;20032;-74
2024/01/30 02:18:23;;;;;;;20.33;13.63;;;6.90;99.90;;;;;;5032090;28;20382;-73
2024/01/30 02:20:51;;;;;;;21.40;15.77;;;6.80;99.90;;;;;;5064478;28;20452;-74
2024/01/30 02:23:16;;;;;;;19.58;16.02;;;6.80;99.90;;;;;;5023682;28;20387;-73
2024/01/30 02:25:46;;;;;;;22.02;15.30;;;6.80;99.90;;;;;;5027794;28;20135;-74
2024/01/30 02:28:12;;;;;;;22.60;15.95;;;6.80;99.90;;;;;;5065367;28;20467;-73
2024/01/30 02:30:39;;;;;;;24.58;14.55;;;6.80;99.90;;;;;;5033042;28;20045;-73
2024/01/30 02:33:05;;;;;;;24.15;16.55;;;6.80;99.90;;;;;;5061697;28;20049;-73
2024/01/30 02:35:30;;;;;;;22.13;15.50;;;6.80;99.90;;;;;;5031669;28;20397;-73
2024/01/30 02:37:56;;;;;;;22.55;15.00;;;6.80;99.90;;;;;;5030741;28;20332;-73
2024/01/30 02:40:22;;;;;;;26.63;16.35;;;6.80;99.90;;;;;;5032863;28;20409;-73
2024/01/30 02:42:47;;;;;;;25.20;15.80;;;6.80;99.90;;;;;;5031282;28;20046;-73
2024/01/30 02:45:13;;;;;;;21.42;15.32;;;6.70;99.90;;;;;;5018677;28;20040;-73
2024/01/30 02:47:40;;;;;;;20.08;13.60;;;6.70;99.90;;;;;;5029129;28;20364;-74
2024/01/30 02:50:06;;;;;;;21.42;14.65;;;6.80;99.90;;;;;;5030514;28;20053;-74
2024/01/30 02:52:32;;;;;;;19.00;12.63;;;6.70;99.90;;;;;;5030959;28;20040;-73
2024/01/30 02:54:58;;;;;;;21.80;15.05;;;6.80;99.90;;;;;;5025500;28;20037;-73
2024/01/30 02:57:23;;;;;;;20.23;15.18;;;6.80;99.90;;;;;;5064756;28;20190;-73
2024/01/30 02:59:49;;;;;;;20.77;14.75;;;6.90;99.90;;;;;;5030602;28;20092;-74
2024/01/30 03:02:15;;;;;;;23.33;15.77;;;6.90;99.90;;;;;;5031892;28;20390;-73
2024/01/30 03:04:41;;;;;;;15.95;10.32;;;6.80;99.90;;;;;;5028645;28;20360;-73
2024/01/30 03:07:07;;;;;;;16.88;11.55;;;6.90;99.90;;;;;;5030456;28;20324;-73
2024/01/30 03:09:33;;;;;;;17.38;13.07;;;7.00;99.90;;;;;;5032066;28;20052;-73
2024/01/30 03:11:59;;;;;;;20.30;14.88;;;7.00;99.90;;;;;;5029552;28;20049;-74
2024/01/30 03:14:24;;;;;;;18.38;12.40;;;6.90;99.90;;;;;;5031139;28;20544;-73
2024/01/30 03:16:50;;;;;;;19.00;13.63;;;6.90;99.90;;;;;;5030537;28;20049;-74
2024/01/30 03:19:16;;;;;;;21.23;15.60;;;6.90;99.90;;;;;;5031273;28;20099;-73
2024/01/30 03:21:41;;;;;;;19.92;13.95;;;6.90;99.90;;;;;;5031858;28;20072;-74
2024/01/30 03:24:07;;;;;;;21.48;13.95;;;6.90;99.90;;;;;;5030922;28;20144;-74
2024/01/30 03:26:33;;;;;;;20.30;14.10;;;6.90;99.90;;;;;;5023324;28;20041;-73
2024/01/30 03:28:58;;;;;;;22.45;13.88;;;6.90;99.90;;;;;;5027295;28;20037;-74
2024/01/30 03:31:24;;;;;;;20.52;13.40;;;7.00;99.90;;;;;;5030343;28;20387;-74
2024/01/30 03:33:50;;;;;;;19.73;12.95;;;6.90;99.90;;;;;;5031101;28;20041;-74
2024/01/30 03:36:16;;;;;;;22.17;15.98;;;6.90;99.90;;;;;;5028999;28;20191;-74
2024/01/30 03:38:42;;;;;;;22.40;14.90;;;7.00;99.90;;;;;;5030848;28;20041;-74
2024/01/30 03:41:09;;;;;;;18.27;14.10;;;6.90;99.90;;;;;;5030755;28;20127;-74
2024/01/30 03:43:34;;;;;;;23.90;15.45;;;6.90;99.90;;;;;;5024057;28;20037;-73
2024/01/30 03:46:01;;;;;;;20.70;14.00;;;6.90;99.90;;;;;;5025628;28;20147;-74
2024/01/30 03:48:27;;;;;;;23.17;14.98;;;6.90;99.90;;;;;;5022326;28;20064;-74
2024/01/30 03:50:52;;;;;;;19.23;13.27;;;6.90;99.90;;;;;;5018791;28;20068;-74
2024/01/30 03:53:18;;;;;;;16.10;11.15;;;6.80;99.90;;;;;;5019129;28;20050;-74
2024/01/30 03:55:44;;;;;;;18.38;12.68;;;6.90;99.90;;;;;;5026869;28;20068;-74
2024/01/30 03:58:09;;;;;;;19.02;11.82;;;7.00;99.90;;;;;;5029451;28;20079;-73
2024/01/30 04:00:35;;;;;;;17.52;13.20;;;7.10;99.90;;;;;;5030423;28;20089;-73
2024/01/30 04:03:01;;;;;;;17.52;11.52;;;7.10;99.90;;;;;;5027773;28;20034;-74
2024/01/30 04:05:27;;;;;;;17.98;12.00;;;7.10;99.90;;;;;;5020026;28;20040;-74
2024/01/30 04:07:52;;;;;;;17.25;12.43;;;7.10;99.90;;;;;;5026295;28;20042;-74
2024/01/30 04:10:18;;;;;;;18.45;12.68;;;7.00;99.90;;;;;;5030737;28;20493;-73
2024/01/30 04:12:43;;;;;;;18.10;14.95;;;7.00;99.90;;;;;;5029923;28;20436;-74
2024/01/30 04:15:09;;;;;;;25.60;15.18;;;6.90;99.90;;;;;;5032769;28;20076;-74
2024/01/30 04:17:35;;;;;;;16.75;11.60;;;6.90;99.90;;;;;;5034349;28;20049;-73
2024/01/30 04:20:00;;;;;;;19.20;12.77;;;7.00;99.90;;;;;;5032479;28;20049;-73
2024/01/30 04:22:26;;;;;;;16.02;12.07;;;6.90;99.90;;;;;;5034084;28;20037;-73
2024/01/30 04:24:52;;;;;;;17.90;11.93;;;7.00;99.90;;;;;;5033541;28;20076;-73
2024/01/30 04:27:17;;;;;;;17.15;11.43;;;7.00;99.90;;;;;;5019769;28;20125;-73
2024/01/30 04:29:43;;;;;;;16.27;12.00;;;7.10;99.90;;;;;;5032722;28;20033;-73
2024/01/30 04:32:09;;;;;;;16.25;12.13;;;7.30;99.90;;;;;;5066305;28;20048;-75
2024/01/30 04:34:36;;;;;;;18.60;12.45;;;7.30;99.90;;;;;;5034564;28;20099;-74
2024/01/30 04:37:02;;;;;;;19.98;13.90;;;7.30;99.90;;;;;;5034527;28;20049;-74
2024/01/30 04:39:28;;;;;;;19.85;12.85;;;7.30;99.90;;;;;;5030018;28;20033;-74
2024/01/30 04:41:54;;;;;;;14.98;11.00;;;7.30;99.90;;;;;;5027284;28;20041;-74
2024/01/30 04:44:19;;;;;;;17.50;11.77;;;7.30;99.90;;;;;;5033740;28;20042;-73
2024/01/30 04:46:45;;;;;;;15.85;9.68;;;7.30;99.90;;;;;;5034741;28;20041;-74
2024/01/30 04:49:11;;;;;;;13.02;7.72;;;7.20;99.90;;;;;;5032247;28;20120;-73
2024/01/30 04:51:36;;;;;;;15.57;11.75;;;7.30;99.90;;;;;;5026870;28;20049;-73
2024/01/30 04:54:03;;;;;;;14.82;10.40;;;7.40;99.90;;;;;;5034063;28;20061;-74
2024/01/30 04:56:29;;;;;;;15.57;11.05;;;7.40;99.90;;;;;;5034386;28;20087;-73
2024/01/30 04:58:54;;;;;;;16.77;10.95;;;7.40;99.90;;;;;;5033768;28;20057;-73
2024/01/30 05:01:20;;;;;;;16.55;10.30;;;7.40;99.90;;;;;;5027973;28;20354;-74
2024/01/30 05:03:46;;;;;;;16.25;10.02;;;7.50;99.90;;;;;;5033506;28;20045;-74
2024/01/30 05:06:11;;;;;;;16.52;11.38;;;7.50;99.90;;;;;;5015892;28;20087;-74
2024/01/30 05:08:37;;;;;;;18.17;10.77;;;7.50;99.90;;;;;;5034927;28;20065;-73
2024/01/30 05:11:04;;;;;;;18.75;12.60;;;7.50;99.90;;;;;;5031688;28;20049;-74
2024/01/30 05:13:31;;;;;;;12.68;9.30;;;7.50;99.90;;;;;;5033594;28;20039;-73
2024/01/30 05:15:57;;;;;;;15.02;11.40;;;7.50;99.90;;;;;;5033960;28;20041;-73
2024/01/30 05:18:23;;;;;;;17.42;12.23;;;7.50;99.90;;;;;;5029811;28;20075;-74
2024/01/30 05:20:50;;;;;;;15.80;11.25;;;7.60;99.90;;;;;;5055707;28;20045;-74
2024/01/30 05:23:16;;;;;;;15.20;10.90;;;7.50;99.90;;;;;;5032043;28;20370;-73
2024/01/30 05:25:42;;;;;;;16.17;11.85;;;7.60;99.90;;;;;;5034128;28;20041;-74
2024/01/30 05:28:08;;;;;;;16.13;9.82;;;7.60;99.90;;;;;;5032121;28;20033;-74
2024/01/30 05:30:33;;;;;;;13.07;10.18;;;7.60;99.90;;;;;;5034099;28;20033;-74
2024/01/30 05:32:59;;;;;;;16.20;11.80;;;7.60;99.90;;;;;;5049318;28;20048;-73
2024/01/30 05:35:25;;;;;;;13.50;10.05;;;7.60;99.90;;;;;;5032284;28;20048;-73
2024/01/30 05:37:51;;;;;;;19.20;11.05;;;7.70;99.90;;;;;;5065088;28;20046;-73
2024/01/30 05:40:16;;;;;;;12.45;8.32;;;7.70;99.90;;;;;;5033368;28;20095;-73
2024/01/30 05:42:42;;;;;;;15.60;10.13;;;7.70;99.90;;;;;;5031953;28;20037;-74
2024/01/30 05:45:09;;;;;;;13.77;8.40;;;7.70;99.90;;;;;;5032376;28;20038;-74
2024/01/30 05:47:35;;;;;;;17.35;12.00;;;7.70;99.90;;;;;;5032604;28;20045;-74
2024/01/30 05:50:01;;;;;;;15.57;9.98;;;7.80;99.90;;;;;;5019791;28;20041;-73
2024/01/30 05:52:26;;;;;;;16.20;11.77;;;7.70;99.90;;;;;;5024160;28;20523;-73
2024/01/30 05:54:52;;;;;;;17.35;11.02;;;7.70;99.90;;;;;;5024388;28;20146;-73
2024/01/30 05:57:18;;;;;;;15.10;12.23;;;7.70;99.90;;;;;;5024141;28;20041;-73
2024/01/30 05:59:44;;;;;;;16.17;10.38;;;7.60;99.90;;;;;;5033367;28;20222;-74
2024/01/30 06:02:11;;;;;;;18.15;11.70;;;7.70;99.90;;;;;;5033190;28;20084;-74
2024/01/30 06:04:37;;;;;;;17.17;10.32;;;7.60;99.90;;;;;;5040634;28;20046;-73
2024/01/30 06:07:02;;;;;;;16.75;10.40;;;7.60;99.90;;;;;;5033602;28;20044;-73
2024/01/30 06:09:29;;;;;;;16.48;12.70;;;7.60;99.90;;;;;;5032406;28;20837;-74
2024/01/30 06:11:55;;;;;;;15.98;11.82;;;7.70;99.90;;;;;;5033125;28;20053;-73
2024/01/30 06:14:20;;;;;;;14.60;11.77;;;7.60;99.90;;;;;;5028349;28;20041;-74
2024/01/30 06:16:46;;;;;;;20.48;11.48;;;7.70;99.90;;;;;;5054050;28;20041;-72
2024/01/30 06:19:12;;;;;;;15.05;11.40;;;7.60;99.90;;;;;;5032163;28;20423;-74
2024/01/30 06:21:38;;;;;;;19.17;12.50;;;7.60;99.90;;;;;;5048796;28;20049;-72
2024/01/30 06:24:04;;;;;;;18.35;11.88;;;7.60;99.90;;;;;;5032951;28;20418;-73
2024/01/30 06:26:30;;;;;;;15.27;11.07;;;7.60;99.90;;;;;;5064447;28;20474;-73
2024/01/30 06:28:55;;;;;;;16.90;12.23;;;7.60;99.90;;;;;;5065279;28;20044;-73
2024/01/30 06:31:21;;;;;;;16.38;11.60;;;7.60;99.90;;;;;;5030319;28;20081;-73
2024/01/30 06:33:47;;;;;;;16.48;11.40;;;7.60;99.90;;;;;;5032837;28;20045;-73
2024/01/30 06:36:13;;;;;;;14.93;8.75;;;7.60;99.90;;;;;;5031520;28;20116;-73
2024/01/30 06:38:39;;;;;;;15.82;11.40;;;7.60;99.90;;;;;;5031366;28;20502;-72
2024/01/30 06:41:05;;;;;;;18.85;10.95;;;7.60;99.90;;;;;;5052840;28;20328;-72
2024/01/30 06:43:30;;;;;;;15.63;11.30;;;7.60;99.90;;;;;;5032041;28;20044;-72
2024/01/30 06:45:56;;;;;;;16.60;10.57;;;7.60;99.90;;;;;;5064815;28;20048;-73
2024/01/30 06:48:22;;;;;;;16.98;11.55;;;7.60;99.90;;;;;;5032602;28;20037;-73
2024/01/30 06:50:49;;;;;;;13.70;10.73;;;7.70;99.90;;;;;;5062694;28;20371;-73
2024/01/30 06:53:14;;;;;;;17.33;11.52;;;7.70;99.90;;;;;;5031824;28;20130;-73
2024/01/30 06:55:40;;;;;;;19.05;11.43;;;7.70;99.90;;;;;;5032006;28;20467;-73
2024/01/30 06:58:06;;;;;;;17.92;11.45;;;7.70;99.90;;;;;;5031894;28;20041;-73
2024/01/30 07:00:32;;;;;;;16.70;10.30;;;7.70;99.90;;;;;;5031611;28;20052;-74
2024/01/30 07:02:57;;;;;;;16.27;10.82;;;7.70;99.90;;;;;;5032239;28;20404;-73
2024/01/30 07:05:23;;;;;;;19.90;11.38;;;7.80;99.90;;;;;;5030425;28;20107;-73
2024/01/30 07:07:49;;;;;;;15.25;10.52;;;7.80;99.90;;;;;;5031072;28;20050;-73
2024/01/30 07:10:14;;;;;;;14.50;10.65;;;7.70;99.90;;;;;;5032143;28;20387;-73
2024/01/30 07:12:40;;;;;;;15.32;11.45;;;7.70;99.90;;;;;;5030580;28;20049;-73
2024/01/30 07:15:09;;;;;;;13.75;9.55;;;7.70;99.90;;;;;;5032016;28;20047;-73
2024/01/30 07:17:35;;;;;;;14.02;10.32;;;7.80;99.90;;;;;;5030273;28;20049;-73
2024/01/30 07:20:03;;;;;;;16.48;11.27;;;7.80;99.90;;;;;;5030380;28;20429;-73
2024/01/30 07:22:30;;;;;;;13.82;10.65;;;7.80;99.90;;;;;;5014118;28;20045;-73
2024/01/30 07:24:56;;;;;;;14.43;11.32;;;7.80;99.90;;;;;;4998241;28;20045;-73
2024/01/30 07:27:21;;;;;;;17.42;11.75;;;7.90;99.90;;;;;;5014012;28;20037;-74
2024/01/30 07:29:47;;;;;;;15.05;10.07;;;7.80;99.90;;;;;;5030635;28;20041;-74
2024/01/30 07:32:13;;;;;;;14.05;9.25;;;7.90;99.90;;;;;;5031388;28;20037;-73
2024/01/30 07:34:38;;;;;;;15.27;11.43;;;7.90;99.90;;;;;;5026298;28;20043;-73
2024/01/30 07:37:04;;;;;;;16.02;11.57;;;7.90;99.90;;;;;;5047239;28;20045;-73
2024/01/30 07:39:30;;;;;;;13.05;9.10;;;7.90;99.90;;;;;;5030257;28;20049;-72
2024/01/30 07:41:55;;;;;;;19.42;9.90;;;7.90;99.90;;;;;;5013199;28;20053;-73
2024/01/30 07:44:22;;;;;;;12.00;8.73;;;7.90;99.90;;;;;;5028841;28;20045;-74
2024/01/30 07:46:48;;;;;;;15.05;11.35;;;7.90;99.90;;;;;;5014048;28;20048;-73
2024/01/30 07:49:14;;;;;;;19.73;10.90;;;8.00;99.90;;;;;;5029772;28;20049;-73
2024/01/30 07:51:40;;;;;;;15.75;10.30;;;7.90;99.90;;;;;;5030362;28;20490;-74
2024/01/30 07:54:15;;;;;;;14.25;11.02;;;8.00;99.90;;;;;;5030643;28;20471;-73
2024/01/30 07:56:40;;;;;;;15.65;10.60;;;8.00;99.90;;;;;;5062372;28;20367;-72
2024/01/30 07:59:10;;;;;;;15.27;11.18;;;7.90;99.90;;;;;;5021177;28;20080;-73
2024/01/30 08:01:35;;;;;;;12.80;9.90;;;8.00;99.90;;;;;;5029454;28;20036;-73
2024/01/30 08:04:01;;;;;;;15.27;11.15;;;8.00;99.90;;;;;;5044065;28;20037;-74
2024/01/30 08:06:27;;;;;;;17.15;11.00;;;8.00;99.90;;;;;;5037938;28;20026;-75
2024/01/30 08:08:53;;;;;;;16.83;10.93;;;8.00;99.90;;;;;;5018829;28;20042;-73
2024/01/30 08:11:25;;;;;;;18.00;12.07;;;8.00;99.90;;;;;;5022002;28;20383;-73
2024/01/30 08:13:51;;;;;;;16.42;10.38;;;8.00;99.90;;;;;;5017025;28;20096;-74
2024/01/30 08:16:17;;;;;;;15.75;10.32;;;8.10;99.90;;;;;;5021673;28;20051;-73
2024/01/30 08:18:43;;;;;;;16.92;10.43;;;8.10;99.90;;;;;;5024806;28;20041;-73
2024/01/30 08:21:09;;;;;;;18.58;11.48;;;8.20;99.90;;;;;;5024554;28;20041;-73
2024/01/30 08:23:35;;;;;;;17.63;10.77;;;8.10;99.90;;;;;;5022591;28;20038;-74
2024/01/30 08:26:01;;;;;;;14.95;11.40;;;8.20;99.90;;;;;;5028137;28;20037;-73
2024/01/30 08:28:26;;;;;;;16.67;10.35;;;8.20;99.90;;;;;;5025974;28;20100;-74
2024/01/30 08:30:52;;;;;;;16.67;10.38;;;8.40;99.90;;;;;;5024780;28;20038;-74
2024/01/30 08:33:18;;;;;;;13.93;10.40;;;8.20;99.90;;;;;;5021151;28;20073;-74
2024/01/30 08:35:44;;;;;;;16.80;10.95;;;8.20;99.90;;;;;;5000658;28;20042;-74
2024/01/30 08:38:10;;;;;;;12.68;8.75;;;8.20;99.90;;;;;;5023278;28;20045;-74
2024/01/30 08:40:36;;;;;;;16.38;11.07;;;8.30;99.90;;;;;;5026609;28;20042;-74
2024/01/30 08:43:02;;;;;;;15.93;10.15;;;8.20;99.90;;;;;;5022455;28;20082;-74
2024/01/30 08:45:27;;;;;;;11.82;8.07;;;8.30;99.90;;;;;;5036711;28;20053;-74
2024/01/30 08:47:53;;;;;;;16.33;10.13;;;8.30;99.90;;;;;;5054489;28;20471;-74
2024/01/30 08:50:19;;;;;;;14.77;8.85;;;8.30;99.90;;;;;;5014361;28;20471;-73
2024/01/30 08:52:44;;;;;;;16.27;9.68;;;8.40;99.90;;;;;;5015150;28;20149;-73
2024/01/30 08:55:10;;;;;;;13.32;8.82;;;8.40;99.90;;;;;;5030820;28;20071;-73
2024/01/30 08:57:36;;;;;;;17.58;9.38;;;8.50;99.90;;;;;;5024173;28;20045;-73
2024/01/30 09:00:06;;;;;;;15.50;9.80;;;8.50;99.90;;;;;;5034031;28;20056;-73
2024/01/30 09:02:32;;;;;;;14.18;8.65;;;8.50;99.90;;;;;;5017326;28;20053;-75
2024/01/30 09:04:58;;;;;;;14.23;9.55;;;8.60;99.90;;;;;;5032812;28;20060;-73
2024/01/30 09:07:24;;;;;;;16.52;10.50;;;8.60;99.90;;;;;;5028087;28;20052;-72
2024/01/30 09:09:49;;;;;;;14.55;9.43;;;8.70;99.90;;;;;;5028092;28;20057;-73
2024/01/30 09:12:15;;;;;;;16.23;10.52;;;8.80;99.90;;;;;;5036689;28;20053;-72
2024/01/30 09:14:41;;;;;;;17.08;11.02;;;8.70;99.90;;;;;;5036059;28;20069;-73
2024/01/30 09:17:07;;;;;;;14.55;9.70;;;8.80;99.90;;;;;;5031545;28;20041;-73
2024/01/30 09:19:33;;;;;;;15.32;10.25;;;8.70;99.90;;;;;;5022552;28;20045;-74
2024/01/30 09:21:59;;;;;;;15.45;10.55;;;8.70;99.90;;;;;;5028155;28;20128;-74
2024/01/30 09:24:26;;;;;;;17.48;10.20;;;8.80;99.90;;;;;;5023963;28;20045;-74
2024/01/30 09:26:52;;;;;;;13.90;9.60;;;8.80;99.90;;;;;;5014198;28;20038;-73
2024/01/30 09:29:18;;;;;;;13.65;9.70;;;8.80;99.90;;;;;;5024579;28;20415;-74
2024/01/30 09:31:46;;;;;;;16.98;9.35;;;8.90;99.90;;;;;;5038180;28;20049;-73
2024/01/30 09:34:13;;;;;;;18.20;11.13;;;8.90;99.90;;;;;;5046740;28;20049;-75
2024/01/30 09:36:39;;;;;;;14.23;10.32;;;8.90;99.90;;;;;;5060585;28;20378;-78
2024/01/30 09:39:06;;;;;;;13.65;10.10;;;8.90;99.90;;;;;;5025256;28;20371;-76
2024/01/30 09:41:48;;;;;;;16.58;10.38;;;9.00;99.90;;;;;;5020981;28;20437;-79
2024/01/30 09:44:16;;;;;;;14.45;9.50;;;9.10;99.90;;;;;;5014756;28;20046;-76
2024/01/30 09:46:42;;;;;;;16.23;9.52;;;9.20;99.90;;;;;;5021078;28;20046;-76
2024/01/30 09:49:09;;;;;;;15.30;10.32;;;9.20;99.90;;;;;;5025993;28;20041;-77
2024/01/30 09:51:36;;;;;;;15.30;10.02;;;9.20;99.90;;;;;;5015226;28;20171;-77
2024/01/30 09:54:02;;;;;;;13.52;9.82;;;9.30;99.90;;;;;;5031599;28;20061;-77
2024/01/30 09:56:29;;;;;;;12.43;9.02;;;9.30;99.90;;;;;;5032124;28;20459;-77
2024/01/30 09:58:54;;;;;;;14.90;9.60;;;9.30;99.90;;;;;;5031911;28;20049;-77
2024/01/30 10:01:20;;;;;;;15.68;8.88;;;9.40;99.90;;;;;;5015260;28;20053;-78
2024/01/30 10:03:46;;;;;;;14.80;9.50;;;9.40;99.90;;;;;;5048682;28;20387;-75
2024/01/30 10:06:12;;;;;;;19.88;9.85;;;9.50;99.90;;;;;;5032453;28;20204;-77
2024/01/30 10:08:37;;;;;;;16.30;10.35;;;9.50;99.90;;;;;;5065204;28;20041;-77
2024/01/30 10:11:04;;;;;;;14.82;9.90;;;9.60;99.90;;;;;;5026478;28;20046;-77
2024/01/30 10:13:29;;;;;;;16.20;9.80;;;9.60;99.90;;;;;;5025412;28;20064;-78
2024/01/30 10:15:56;;;;;;;14.90;9.13;;;9.60;99.90;;;;;;5031630;28;20386;-77
2024/01/30 10:18:24;;;;;;;17.40;10.70;;;9.70;99.90;;;;;;5032982;28;20103;-78
2024/01/30 10:20:51;;;;;;;17.00;10.25;;;9.70;99.90;;;;;;5015244;28;20107;-76
2024/01/30 10:23:18;;;;;;;17.10;9.98;;;9.80;99.90;;;;;;5030091;28;20430;-76
2024/01/30 10:25:44;;;;;;;14.93;10.35;;;9.80;99.90;;;;;;5031608;28;20045;-75
2024/01/30 10:28:11;;;;;;;16.15;9.75;;;9.90;99.90;;;;;;5031558;28;20107;-74
2024/01/30 10:30:37;;;;;;;16.70;10.00;;;9.90;99.90;;;;;;5021212;28;20202;-74
2024/01/30 10:33:03;;;;;;;14.43;9.98;;;9.90;99.90;;;;;;5018637;28;20049;-73
2024/01/30 10:35:28;;;;;;;18.17;10.18;;;10.00;99.90;;;;;;5014128;28;20026;-78
2024/01/30 10:37:58;;;;;;;17.08;9.55;;;10.00;99.90;;;;;;5044595;28;20086;-72
2024/01/30 10:40:28;;;;;;;15.55;8.90;;;10.00;99.90;;;;;;5045428;28;20058;-80
2024/01/30 10:42:55;;;;;;;14.65;10.50;;;10.00;99.90;;;;;;5038996;28;20108;-73
2024/01/30 10:45:22;;;;;;;18.67;10.68;;;10.00;99.90;;;;;;5025297;28;20433;-78
2024/01/30 10:47:56;;;;;;;15.48;10.57;;;10.00;99.90;;;;;;5027803;28;20371;-78
2024/01/30 10:50:27;;;;;;;16.70;9.57;;;10.00;99.90;;;;;;5024613;28;20483;-76
2024/01/30 10:52:54;;;;;;;17.77;10.52;;;10.20;99.90;;;;;;5025332;28;20045;-77
2024/01/30 10:55:23;;;;;;;15.32;9.57;;;10.00;99.90;;;;;;5030068;28;20116;-77
2024/01/30 10:57:50;;;;;;;14.90;10.63;;;10.10;99.90;;;;;;5014726;28;20061;-77
2024/01/30 11:00:19;;;;;;;15.20;10.85;;;10.00;99.90;;;;;;5031640;28;20102;-76
2024/01/30 11:02:46;;;;;;;15.90;9.98;;;10.10;99.90;;;;;;5030652;28;20125;-76
2024/01/30 11:05:13;;;;;;;14.63;10.10;;;10.10;99.90;;;;;;5022918;28;20041;-76
2024/01/30 11:07:41;;;;;;;20.13;10.70;;;10.10;99.90;;;;;;5029442;28;20045;-75
2024/01/30 11:10:09;;;;;;;21.08;10.25;;;10.10;99.90;;;;;;5013956;28;20060;-75
2024/01/30 11:12:43;;;;;;;16.77;10.88;;;10.10;99.90;;;;;;5021674;28;20050;-76
2024/01/30 11:15:18;;;;;;;17.98;9.93;;;10.10;99.90;;;;;;5027998;28;20303;-73
2024/01/30 11:17:48;;;;;;;21.20;9.77;;;10.10;99.90;;;;;;5014613;28;20045;-73
2024/01/30 11:20:21;;;;;;;14.55;8.48;;;10.10;99.90;;;;;;5022716;28;20064;-73
2024/01/30 11:22:48;;;;;;;15.35;8.57;;;10.10;99.90;;;;;;5031963;28;20048;-72
2024/01/30 11:25:15;;;;;;;17.83;9.82;;;10.20;99.90;;;;;;5028744;28;20442;-73
2024/01/30 11:27:42;;;;;;;13.98;8.25;;;10.20;99.90;;;;;;5028458;28;20536;-73
2024/01/30 11:30:08;;;;;;;13.18;8.20;;;10.20;99.90;;;;;;5030523;28;20490;-72
2024/01/30 11:32:34;;;;;;;16.13;8.25;;;10.20;99.90;;;;;;5047497;28;20426;-73
2024/01/30 11:35:03;;;;;;;14.57;7.70;;;10.20;99.90;;;;;;5062502;28;20038;-72
2024/01/30 11:37:30;;;;;;;11.18;7.10;;;10.20;99.90;;;;;;5025096;28;20115;-72
2024/01/30 11:39:57;;;;;;;11.85;6.38;;;10.20;99.90;;;;;;5030299;28;20102;-72
2024/01/30 11:42:27;;;;;;;13.82;5.57;;;10.20;99.90;;;;;;5031114;28;20075;-71
2024/01/30 11:44:53;;;;;;;14.98;6.55;;;10.20;99.90;;;;;;5063839;28;20064;-74
2024/01/30 11:47:18;;;;;;;11.82;6.70;;;10.20;99.90;;;;;;5029237;28;20041;-71
2024/01/30 11:49:45;;;;;;;15.38;5.82;;;10.20;99.90;;;;;;5024757;28;20045;-71
2024/01/30 11:52:10;;;;;;;11.48;5.40;;;10.20;99.90;;;;;;5022794;28;20041;-72
2024/01/30 11:54:40;;;;;;;12.30;4.95;;;10.20;99.90;;;;;;5026872;28;20056;-71
2024/01/30 11:57:05;;;;;;;12.05;4.97;;;10.20;99.90;;;;;;5028915;28;20042;-71
2024/01/30 11:59:31;;;;;;;10.68;5.03;;;10.30;99.90;;;;;;5031234;28;20052;-71
2024/01/30 12:01:57;;;;;;;11.13;4.78;;;10.20;99.90;;;;;;5031268;28;20065;-74
2024/01/30 12:04:23;;;;;;;10.57;4.72;;;10.20;99.90;;;;;;5014313;28;20049;-71
2024/01/30 12:06:52;;;;;;;12.43;5.03;;;10.20;99.90;;;;;;5028306;28;20037;-72
2024/01/30 12:09:17;;;;;;;11.95;4.90;;;10.20;99.90;;;;;;5029588;28;20053;-71
2024/01/30 12:11:45;;;;;;;10.50;4.68;;;10.10;99.90;;;;;;5031177;28;20121;-72
2024/01/30 12:14:11;;;;;;;6.63;3.58;;;10.10;99.90;;;;;;5021452;28;20065;-72
2024/01/30 12:16:37;;;;;;;8.52;3.00;;;10.10;99.90;;;;;;5026294;28;20076;-71
2024/01/30 12:19:03;;;;;;;6.25;2.38;;;10.10;99.90;;;;;;5021532;28;20069;-70
2024/01/30 12:21:29;;;;;;;4.32;2.47;;;10.00;99.90;;;;;;5019082;28;20041;-72
2024/01/30 12:23:59;;;;;;;3.30;1.88;;;10.00;99.90;;;;;;5019447;28;20116;-70
2024/01/30 12:26:26;;;;;;;6.05;2.92;;;10.00;99.90;;;;;;5042124;28;20047;-74
2024/01/30 12:28:55;;;;;;;6.53;2.15;;;9.90;99.90;;;;;;5043259;28;20043;-75
2024/01/30 12:31:32;;;;;;;5.30;1.75;;;9.90;99.90;;;;;;5013137;28;20052;-74
2024/01/30 12:34:00;;;;;;;3.70;1.50;;;9.90;99.90;;;;;;5014122;28;20095;-75